createdAt,value
2018-07-26T00:01:15.699Z,7.67
2018-07-26T00:03:44.136Z,8.77
2018-07-26T00:06:12.319Z,7.33
2018-07-26T00:08:40.843Z,7.93
2018-07-26T00:11:09.031Z,9.37
2018-07-26T00:13:37.313Z,6.83
2018-07-26T00:16:05.827Z,7.40
2018-07-26T00:18:34.075Z,8.50
2018-07-26T00:21:02.272Z,7.33
2018-07-26T00:23:30.480Z,8.13
2018-07-26T00:25:58.656Z,9.57
2018-07-26T00:28:26.879Z,7.17
2018-07-26T00:30:55.045Z,7.13
2018-07-26T00:33:23.191Z,7.33
2018-07-26T00:35:51.355Z,6.97
2018-07-26T00:38:19.510Z,7.20
2018-07-26T00:40:47.986Z,8.90
2018-07-26T00:43:16.422Z,6.97
2018-07-26T00:45:44.583Z,7.23
2018-07-26T00:48:12.739Z,8.73
2018-07-26T00:50:40.904Z,6.87
2018-07-26T00:53:09.055Z,9.67
2018-07-26T00:55:37.298Z,7.33
2018-07-26T00:58:05.619Z,7.80
2018-07-26T01:00:33.804Z,7.23
2018-07-26T01:03:01.955Z,7.13
2018-07-26T01:05:30.115Z,8.73
2018-07-26T01:07:58.594Z,7.30
2018-07-26T01:10:26.769Z,8.13
2018-07-26T01:12:54.959Z,7.07
2018-07-26T01:15:23.111Z,8.10
2018-07-26T01:17:51.262Z,7.27
2018-07-26T01:20:19.843Z,9.63
2018-07-26T01:22:48.010Z,6.63
2018-07-26T01:25:16.185Z,7.13
2018-07-26T01:27:44.334Z,7.50
2018-07-26T01:30:12.519Z,7.70
2018-07-26T01:32:40.714Z,7.53
2018-07-26T01:35:08.911Z,7.47
2018-07-26T01:37:37.056Z,7.50
2018-07-26T01:40:05.270Z,7.03
2018-07-26T01:42:48.057Z,7.27
2018-07-26T01:45:16.238Z,6.77
2018-07-26T01:47:44.689Z,9.23
2018-07-26T01:50:12.910Z,7.23
2018-07-26T01:52:41.135Z,7.60
2018-07-26T01:55:09.351Z,7.63
2018-07-26T01:57:37.575Z,9.33
2018-07-26T02:00:06.382Z,7.47
2018-07-26T02:02:34.602Z,7.43
2018-07-26T02:05:02.847Z,7.47
2018-07-26T02:07:31.089Z,6.97
2018-07-26T02:09:59.295Z,7.07
2018-07-26T02:12:27.722Z,6.50
2018-07-26T02:14:55.887Z,7.13
2018-07-26T02:17:24.039Z,6.13
2018-07-26T02:19:52.218Z,7.87
2018-07-26T02:22:20.394Z,7.13
2018-07-26T02:24:48.545Z,6.57
2018-07-26T02:27:16.707Z,7.50
2018-07-26T02:29:44.858Z,6.73
2018-07-26T02:32:13.027Z,7.07
2018-07-26T02:34:41.165Z,8.17
2018-07-26T02:37:09.327Z,6.53
2018-07-26T02:39:37.502Z,8.17
2018-07-26T02:42:05.708Z,6.77
2018-07-26T02:44:33.892Z,6.30
2018-07-26T02:47:02.067Z,6.80
2018-07-26T02:49:30.214Z,6.13
2018-07-26T02:51:58.402Z,8.03
2018-07-26T02:54:26.581Z,6.73
2018-07-26T02:56:54.739Z,7.53
2018-07-26T02:59:22.954Z,6.87
2018-07-26T03:01:51.342Z,5.93
2018-07-26T03:04:19.491Z,6.53
2018-07-26T03:06:47.683Z,6.27
2018-07-26T03:09:15.846Z,7.93
2018-07-26T03:11:44.008Z,7.43
2018-07-26T03:14:12.157Z,6.13
2018-07-26T03:16:40.365Z,5.90
2018-07-26T03:19:08.569Z,6.60
2018-07-26T03:21:36.743Z,6.67
2018-07-26T03:24:04.907Z,7.03
2018-07-26T03:26:33.063Z,6.53
2018-07-26T03:29:01.219Z,7.10
2018-07-26T03:31:29.379Z,6.57
2018-07-26T03:33:57.553Z,7.67
2018-07-26T03:36:25.706Z,6.77
2018-07-26T03:38:53.881Z,7.17
2018-07-26T03:41:22.073Z,5.70
2018-07-26T03:43:50.227Z,5.83
2018-07-26T03:46:18.442Z,6.60
2018-07-26T03:48:46.587Z,6.33
2018-07-26T03:51:14.806Z,6.87
2018-07-26T03:53:43.105Z,5.73
2018-07-26T03:56:11.339Z,6.17
2018-07-26T03:58:39.518Z,6.17
2018-07-26T04:01:07.729Z,6.73
2018-07-26T04:03:35.871Z,6.30
2018-07-26T04:06:04.891Z,8.17
2018-07-26T04:08:33.054Z,5.63
2018-07-26T04:11:01.216Z,5.17
2018-07-26T04:13:29.410Z,5.57
2018-07-26T04:15:57.831Z,5.80
2018-07-26T04:18:26.042Z,5.60
2018-07-26T04:20:54.224Z,4.97
2018-07-26T04:23:22.762Z,7.27
2018-07-26T04:25:50.939Z,5.97
2018-07-26T04:28:19.184Z,5.80
2018-07-26T04:30:47.399Z,5.67
2018-07-26T04:33:15.598Z,7.63
2018-07-26T04:35:43.798Z,5.23
2018-07-26T04:38:11.982Z,5.83
2018-07-26T04:40:40.171Z,7.47
2018-07-26T04:43:08.654Z,6.07
2018-07-26T04:45:36.842Z,5.83
2018-07-26T04:48:05.058Z,6.33
2018-07-26T04:50:33.238Z,6.27
2018-07-26T04:53:01.449Z,7.40
2018-07-26T04:55:29.645Z,5.73
2018-07-26T04:57:57.871Z,5.17
2018-07-26T05:00:26.062Z,6.13
2018-07-26T05:02:54.289Z,4.93
2018-07-26T05:05:22.800Z,4.60
2018-07-26T05:07:51.015Z,5.23
2018-07-26T05:10:19.475Z,4.90
2018-07-26T05:12:47.662Z,4.57
2018-07-26T05:15:15.806Z,5.33
2018-07-26T05:17:43.987Z,6.53
2018-07-26T05:20:12.159Z,5.73
2018-07-26T05:22:40.340Z,5.53
2018-07-26T05:25:08.524Z,5.00
2018-07-26T05:27:36.735Z,5.57
2018-07-26T05:30:05.159Z,6.37
2018-07-26T05:32:33.313Z,6.13
2018-07-26T05:35:01.469Z,4.87
2018-07-26T05:37:29.680Z,5.93
2018-07-26T05:39:57.883Z,5.80
2018-07-26T05:42:26.071Z,6.27
2018-07-26T05:44:54.243Z,6.37
2018-07-26T05:47:22.410Z,5.63
2018-07-26T05:49:50.879Z,6.03
2018-07-26T05:52:19.138Z,5.33
2018-07-26T05:54:47.309Z,6.07
2018-07-26T05:57:15.471Z,5.87
2018-07-26T05:59:43.645Z,5.80
2018-07-26T06:02:12.630Z,6.90
2018-07-26T06:04:40.834Z,5.70
2018-07-26T06:07:09.099Z,5.03
2018-07-26T06:09:37.301Z,5.53
2018-07-26T06:12:05.479Z,6.33
2018-07-26T06:14:33.740Z,5.53
2018-07-26T06:17:01.968Z,4.47
2018-07-26T06:19:30.148Z,4.97
2018-07-26T06:21:58.330Z,5.27
2018-07-26T06:24:26.842Z,5.90
2018-07-26T06:26:55.027Z,4.77
2018-07-26T06:29:23.274Z,6.67
2018-07-26T06:31:51.498Z,5.60
2018-07-26T06:34:19.971Z,5.27
2018-07-26T06:36:48.151Z,6.77
2018-07-26T06:39:16.142Z,5.07
2018-07-26T06:41:44.785Z,4.63
2018-07-26T06:44:13.742Z,5.33
2018-07-26T06:46:41.942Z,5.57
2018-07-26T06:49:10.250Z,4.67
2018-07-26T06:51:38.648Z,5.77
2018-07-26T06:54:06.878Z,5.43
2018-07-26T06:56:35.071Z,6.00
2018-07-26T06:59:03.330Z,4.50
2018-07-26T07:01:32.119Z,5.20
2018-07-26T07:04:00.335Z,4.80
2018-07-26T07:06:28.742Z,5.13
2018-07-26T07:08:56.994Z,4.50
2018-07-26T07:11:25.547Z,4.63
2018-07-26T07:13:53.770Z,4.40
2018-07-26T07:16:21.946Z,4.63
2018-07-26T07:18:50.107Z,5.10
2018-07-26T07:21:18.523Z,4.73
2018-07-26T07:23:47.115Z,6.50
2018-07-26T07:26:15.491Z,5.63
2018-07-26T07:28:43.712Z,6.47
2018-07-26T07:31:11.875Z,5.83
2018-07-26T07:33:40.044Z,6.80
2018-07-26T07:36:08.202Z,6.60
2018-07-26T07:38:36.369Z,6.03
2018-07-26T07:41:04.771Z,5.83
2018-07-26T07:43:32.954Z,6.50
2018-07-26T07:46:01.131Z,6.60
2018-07-26T07:48:29.299Z,6.90
2018-07-26T07:50:57.455Z,6.23
2018-07-26T07:53:25.630Z,6.20
2018-07-26T07:55:53.786Z,5.83
2018-07-26T07:58:21.945Z,4.97
2018-07-26T08:00:50.137Z,5.83
2018-07-26T08:03:18.273Z,5.10
2018-07-26T08:05:46.436Z,5.43
2018-07-26T08:08:14.887Z,5.57
2018-07-26T08:10:43.090Z,5.13
2018-07-26T08:13:11.295Z,4.90
2018-07-26T08:15:39.500Z,4.33
2018-07-26T08:18:07.831Z,4.50
2018-07-26T08:20:35.998Z,4.90
2018-07-26T08:23:04.174Z,5.37
2018-07-26T08:25:32.354Z,3.77
2018-07-26T08:28:00.321Z,4.40
2018-07-26T08:30:28.514Z,4.17
2018-07-26T08:32:56.674Z,4.83
2018-07-26T08:35:24.837Z,4.20
2018-07-26T08:37:53.011Z,4.27
2018-07-26T08:40:21.171Z,4.83
2018-07-26T08:42:49.446Z,4.40
2018-07-26T08:45:17.630Z,4.10
2018-07-26T08:47:45.838Z,4.17
2018-07-26T08:50:14.008Z,4.50
2018-07-26T08:52:42.153Z,4.00
2018-07-26T08:55:10.339Z,3.77
2018-07-26T08:57:38.534Z,4.60
2018-07-26T09:00:07.292Z,4.53
2018-07-26T09:02:35.473Z,4.07
2018-07-26T09:05:03.651Z,4.87
2018-07-26T09:07:31.798Z,4.90
2018-07-26T09:09:59.777Z,4.50
2018-07-26T09:12:27.874Z,4.77
2018-07-26T09:14:56.066Z,4.63
2018-07-26T09:17:24.796Z,5.20
2018-07-26T09:19:52.998Z,4.87
2018-07-26T09:22:21.130Z,4.17
2018-07-26T09:24:49.294Z,3.70
2018-07-26T09:27:17.478Z,4.17
2018-07-26T09:29:45.635Z,3.93
2018-07-26T09:32:13.831Z,4.80
2018-07-26T09:34:42.037Z,3.97
2018-07-26T09:37:10.203Z,4.57
2018-07-26T09:39:38.398Z,3.93
2018-07-26T09:42:06.833Z,3.80
2018-07-26T09:44:34.981Z,4.40
2018-07-26T09:47:03.164Z,4.87
2018-07-26T09:49:31.333Z,4.30
2018-07-26T09:51:59.759Z,4.73
2018-07-26T09:54:27.911Z,4.17
2018-07-26T09:56:56.106Z,4.30
2018-07-26T09:59:24.295Z,4.47
2018-07-26T10:01:52.459Z,4.60
2018-07-26T10:04:20.931Z,3.90
2018-07-26T10:06:49.142Z,4.13
2018-07-26T10:09:17.266Z,4.10
2018-07-26T10:11:45.496Z,3.47
2018-07-26T10:14:13.699Z,2.90
2018-07-26T10:16:41.962Z,3.53
2018-07-26T10:19:10.383Z,3.50
2018-07-26T10:21:38.612Z,3.20
2018-07-26T10:24:06.858Z,4.03
2018-07-26T10:26:35.187Z,4.00
2018-07-26T10:29:03.371Z,3.57
2018-07-26T10:31:31.659Z,3.57
2018-07-26T10:33:59.858Z,3.57
2018-07-26T10:36:28.052Z,2.97
2018-07-26T10:38:56.227Z,4.23
2018-07-26T10:41:24.418Z,4.70
2018-07-26T10:43:53.109Z,4.30
2018-07-26T10:46:21.561Z,3.07
2018-07-26T10:48:49.766Z,3.70
2018-07-26T10:51:18.259Z,3.30
2018-07-26T10:53:46.715Z,4.03
2018-07-26T10:56:15.223Z,4.30
2018-07-26T10:58:43.457Z,3.90
2018-07-26T11:01:11.711Z,3.40
2018-07-26T11:03:39.952Z,2.80
2018-07-26T11:06:08.108Z,3.30
2018-07-26T11:08:36.310Z,3.60
2018-07-26T11:11:04.504Z,3.25
2018-07-26T11:13:32.894Z,3.55
2018-07-26T11:16:01.439Z,6.28
2018-07-26T11:18:29.615Z,4.35
2018-07-26T11:20:57.826Z,4.00
2018-07-26T11:23:26.021Z,3.80
2018-07-26T11:25:54.219Z,3.75
2018-07-26T11:28:22.488Z,4.37
2018-07-26T11:30:50.668Z,3.77
2018-07-26T11:33:19.178Z,4.15
2018-07-26T11:35:47.411Z,4.90
2018-07-26T11:38:15.632Z,3.10
2018-07-26T11:40:44.036Z,3.62
2018-07-26T11:43:12.018Z,3.22
2018-07-26T11:45:40.677Z,2.50
2018-07-26T11:48:09.162Z,2.55
2018-07-26T11:50:37.367Z,3.52
2018-07-26T11:53:05.792Z,2.60
2018-07-26T11:55:33.998Z,2.45
2018-07-26T11:58:02.229Z,2.12
2018-07-26T12:00:30.414Z,3.05
2018-07-26T12:02:58.639Z,2.80
2018-07-26T12:05:26.824Z,3.40
2018-07-26T12:07:54.998Z,3.50
2018-07-26T12:10:23.185Z,4.25
2018-07-26T12:12:51.418Z,4.40
2018-07-26T12:15:19.911Z,3.12
2018-07-26T12:17:48.335Z,3.98
2018-07-26T12:20:16.555Z,3.62
2018-07-26T12:22:44.993Z,3.30
2018-07-26T12:25:13.228Z,3.60
2018-07-26T12:27:41.570Z,3.72
2018-07-26T12:30:09.771Z,3.45
2018-07-26T12:32:38.019Z,4.58
2018-07-26T12:35:06.235Z,13.58
2018-07-26T12:37:34.512Z,5.12
2018-07-26T12:40:02.727Z,4.97
2018-07-26T12:42:30.945Z,4.20
2018-07-26T12:44:59.150Z,4.10
2018-07-26T12:47:27.754Z,3.85
2018-07-26T12:49:55.906Z,5.00
2018-07-26T12:52:24.098Z,4.37
2018-07-26T12:54:52.432Z,3.75
2018-07-26T12:57:20.646Z,3.72
2018-07-26T12:59:48.826Z,4.00
2018-07-26T13:02:17.274Z,4.03
2018-07-26T13:04:45.938Z,3.90
2018-07-26T13:07:14.203Z,3.75
2018-07-26T13:09:42.629Z,4.42
2018-07-26T13:12:10.818Z,4.03
2018-07-26T13:14:38.937Z,3.50
2018-07-26T13:17:07.091Z,3.95
2018-07-26T13:19:35.271Z,4.28
2018-07-26T13:22:03.482Z,4.25
2018-07-26T13:24:31.665Z,4.17
2018-07-26T13:26:59.638Z,3.92
2018-07-26T13:29:27.818Z,3.42
2018-07-26T13:31:56.034Z,3.47
2018-07-26T13:34:24.480Z,4.20
2018-07-26T13:36:52.685Z,4.58
2018-07-26T13:39:20.867Z,3.87
2018-07-26T13:41:49.054Z,3.80
2018-07-26T13:44:17.245Z,4.40
2018-07-26T13:46:45.465Z,4.80
2018-07-26T13:49:13.795Z,4.80
2018-07-26T13:51:42.087Z,3.67
2018-07-26T13:54:10.306Z,3.83
2018-07-26T13:56:38.537Z,4.10
2018-07-26T13:59:06.750Z,3.75
2018-07-26T14:01:34.922Z,3.60
2018-07-26T14:04:03.156Z,3.80
2018-07-26T14:06:31.325Z,3.90
2018-07-26T14:08:59.575Z,3.90
2018-07-26T14:11:27.777Z,4.28
2018-07-26T14:13:56.015Z,4.30
2018-07-26T14:16:24.672Z,3.72
2018-07-26T14:18:57.092Z,4.12
2018-07-26T14:21:25.274Z,4.00
2018-07-26T14:23:59.016Z,3.70
2018-07-26T14:26:27.167Z,3.55
2018-07-26T14:28:55.362Z,4.10
2018-07-26T14:31:23.519Z,4.22
2018-07-26T14:33:51.749Z,3.90
2018-07-26T14:36:19.939Z,4.17
2018-07-26T14:38:48.110Z,4.33
2018-07-26T14:41:16.257Z,4.08
2018-07-26T14:43:44.422Z,3.92
2018-07-26T14:46:12.563Z,4.47
2018-07-26T14:48:40.730Z,3.90
2018-07-26T14:51:08.909Z,4.35
2018-07-26T14:53:37.057Z,3.42
2018-07-26T14:56:05.027Z,3.47
2018-07-26T14:58:33.331Z,3.55
2018-07-26T15:01:01.722Z,4.10
2018-07-26T15:03:29.976Z,3.58
2018-07-26T15:05:58.165Z,3.95
2018-07-26T15:08:26.393Z,3.65
2018-07-26T15:10:54.568Z,3.50
2018-07-26T15:13:22.778Z,3.55
2018-07-26T15:15:50.978Z,3.45
2018-07-26T15:18:19.178Z,3.33
2018-07-26T15:20:47.372Z,2.98
2018-07-26T15:23:15.570Z,3.58
2018-07-26T15:25:43.767Z,3.42
2018-07-26T15:28:11.946Z,3.30
2018-07-26T15:30:40.175Z,3.20
2018-07-26T15:33:08.382Z,3.33
2018-07-26T15:35:36.561Z,3.47
2018-07-26T15:38:04.769Z,3.70
2018-07-26T15:40:32.714Z,3.35
2018-07-26T15:43:00.918Z,3.33
2018-07-26T15:45:29.122Z,3.58
2018-07-26T15:47:57.341Z,3.60
2018-07-26T15:50:25.643Z,3.90
2018-07-26T15:52:53.847Z,3.40
2018-07-26T15:55:22.033Z,4.20
2018-07-26T15:57:50.262Z,3.87
2018-07-26T16:00:18.441Z,3.52
2018-07-26T16:02:46.889Z,4.05
2018-07-26T16:05:15.121Z,3.15
2018-07-26T16:07:43.246Z,3.83
2018-07-26T16:10:11.491Z,3.25
2018-07-26T16:12:39.674Z,3.58
2018-07-26T16:15:09.611Z,3.60
2018-07-26T16:17:37.910Z,3.72
2018-07-26T16:20:07.587Z,3.67
2018-07-26T16:22:36.170Z,2.87
2018-07-26T16:25:05.550Z,2.70
2018-07-26T16:27:33.785Z,3.20
2018-07-26T16:30:02.027Z,3.85
2018-07-26T16:32:30.222Z,3.15
2018-07-26T16:34:58.419Z,3.75
2018-07-26T16:37:26.603Z,3.75
2018-07-26T16:39:54.815Z,3.35
2018-07-26T16:42:23.310Z,3.40
2018-07-26T16:44:51.494Z,3.52
2018-07-26T16:47:19.731Z,3.85
2018-07-26T16:49:48.250Z,3.50
2018-07-26T16:52:16.442Z,3.35
2018-07-26T16:54:44.659Z,4.08
2018-07-26T16:57:12.846Z,3.90
2018-07-26T16:59:41.082Z,3.40
2018-07-26T17:02:09.298Z,3.77
2018-07-26T17:04:37.790Z,3.67
2018-07-26T17:07:06.073Z,4.30
2018-07-26T17:09:34.302Z,3.70
2018-07-26T17:12:02.487Z,4.45
2018-07-26T17:14:30.679Z,7.12
2018-07-26T17:16:58.879Z,23.87
2018-07-26T17:19:27.082Z,10.93
2018-07-26T17:21:55.271Z,9.63
2018-07-26T17:24:23.809Z,10.13
2018-07-26T17:26:52.018Z,5.03
2018-07-26T17:29:20.285Z,11.90
2018-07-26T17:31:48.458Z,8.45
2018-07-26T17:34:16.670Z,4.28
2018-07-26T17:36:44.859Z,7.08
2018-07-26T17:39:13.046Z,5.15
2018-07-26T17:41:41.238Z,6.00
2018-07-26T17:44:09.222Z,6.25
2018-07-26T17:46:37.491Z,11.00
2018-07-26T17:49:05.760Z,4.12
2018-07-26T17:51:34.322Z,7.28
2018-07-26T17:54:02.549Z,3.62
2018-07-26T17:56:30.640Z,5.90
2018-07-26T17:59:01.187Z,6.05
2018-07-26T18:01:29.993Z,4.43
2018-07-26T18:03:58.168Z,3.45
2018-07-26T18:06:27.409Z,3.63
2018-07-26T18:08:55.604Z,3.85
2018-07-26T18:11:23.824Z,3.30
2018-07-26T18:13:52.556Z,3.27
2018-07-26T18:16:20.814Z,3.90
2018-07-26T18:18:48.990Z,4.10
2018-07-26T18:21:17.151Z,3.63
2018-07-26T18:23:45.306Z,4.20
2018-07-26T18:26:13.535Z,3.90
2018-07-26T18:28:41.785Z,3.87
2018-07-26T18:31:10.019Z,4.00
2018-07-26T18:33:38.202Z,3.87
2018-07-26T18:36:06.638Z,3.40
2018-07-26T18:38:34.827Z,4.13
2018-07-26T18:41:03.134Z,4.50
2018-07-26T18:43:31.423Z,4.33
2018-07-26T18:45:59.494Z,4.13
2018-07-26T18:48:27.890Z,4.10
2018-07-26T18:50:56.091Z,3.83
2018-07-26T18:53:24.271Z,4.57
2018-07-26T18:55:52.534Z,4.27
2018-07-26T18:58:20.731Z,5.50
2018-07-26T19:00:48.902Z,5.10
2018-07-26T19:03:17.242Z,4.50
2018-07-26T19:05:45.707Z,5.33
2018-07-26T19:08:13.942Z,4.50
2018-07-26T19:10:42.119Z,4.07
2018-07-26T19:13:10.406Z,3.73
2018-07-26T19:15:38.589Z,3.23
2018-07-26T19:18:06.743Z,4.03
2018-07-26T19:20:34.917Z,4.27
2018-07-26T19:23:03.192Z,3.13
2018-07-26T19:25:31.685Z,3.77
2018-07-26T19:27:59.909Z,4.37
2018-07-26T19:30:28.083Z,4.40
2018-07-26T19:32:56.318Z,4.30
2018-07-26T19:35:24.916Z,4.20
2018-07-26T19:37:53.091Z,4.40
2018-07-26T19:40:21.321Z,4.13
2018-07-26T19:42:49.541Z,4.63
2018-07-26T19:45:17.727Z,4.37
2018-07-26T19:47:45.918Z,4.50
2018-07-26T19:50:14.150Z,4.60
2018-07-26T19:52:42.718Z,5.30
2018-07-26T19:55:11.340Z,4.70
2018-07-26T19:57:39.572Z,4.43
2018-07-26T20:00:08.276Z,4.70
2018-07-26T20:02:37.367Z,5.27
2018-07-26T20:05:05.608Z,4.63
2018-07-26T20:07:33.846Z,5.10
2018-07-26T20:10:02.140Z,4.80
2018-07-26T20:12:30.279Z,5.00
2018-07-26T20:14:58.466Z,5.03
2018-07-26T20:17:26.750Z,4.50
2018-07-26T20:19:54.961Z,5.20
2018-07-26T20:22:23.139Z,4.40
2018-07-26T20:24:51.295Z,5.77
2018-07-26T20:27:19.517Z,5.23
2018-07-26T20:29:47.895Z,5.70
2018-07-26T20:32:16.078Z,6.20
2018-07-26T20:34:44.283Z,5.70
2018-07-26T20:37:12.513Z,6.07
2018-07-26T20:39:40.700Z,6.10
2018-07-26T20:42:08.908Z,5.90
2018-07-26T20:44:37.158Z,6.30
2018-07-26T20:47:05.456Z,6.00
2018-07-26T20:49:33.644Z,6.40
2018-07-26T20:52:01.771Z,5.80
2018-07-26T20:54:29.939Z,5.93
2018-07-26T20:56:58.099Z,5.57
2018-07-26T20:59:26.279Z,7.13
2018-07-26T21:01:54.458Z,5.57
2018-07-26T21:04:22.611Z,6.03
2018-07-26T21:06:50.782Z,5.67
2018-07-26T21:09:18.986Z,5.93
2018-07-26T21:11:47.184Z,6.07
2018-07-26T21:14:15.379Z,5.73
2018-07-26T21:16:43.632Z,6.13
2018-07-26T21:19:11.903Z,6.47
2018-07-26T21:21:40.124Z,6.20
2018-07-26T21:24:08.405Z,6.83
2018-07-26T21:26:36.558Z,6.73
2018-07-26T21:29:04.775Z,6.03
2018-07-26T21:31:33.114Z,6.17
2018-07-26T21:34:01.332Z,6.70
2018-07-26T21:36:29.574Z,6.27
2018-07-26T21:38:57.760Z,7.17
2018-07-26T21:41:25.966Z,6.13
2018-07-26T21:43:54.719Z,6.43
2018-07-26T21:46:22.915Z,7.27
2018-07-26T21:48:51.183Z,6.83
2018-07-26T21:51:19.418Z,6.20
2018-07-26T21:53:48.344Z,6.87
2018-07-26T21:56:16.599Z,6.27
2018-07-26T21:58:44.854Z,7.13
2018-07-26T22:01:13.083Z,7.23
2018-07-26T22:03:41.270Z,6.00
2018-07-26T22:06:09.481Z,6.57
2018-07-26T22:08:37.747Z,6.13
2018-07-26T22:11:05.934Z,6.30
2018-07-26T22:13:34.699Z,5.90
2018-07-26T22:16:02.932Z,6.90
2018-07-26T22:18:31.089Z,6.50
2018-07-26T22:20:59.275Z,5.77
2018-07-26T22:23:27.458Z,6.63
2018-07-26T22:25:55.803Z,6.50
2018-07-26T22:28:24.039Z,6.07
2018-07-26T22:30:52.221Z,7.50
2018-07-26T22:33:20.394Z,6.57
2018-07-26T22:35:48.597Z,5.93
2018-07-26T22:38:16.828Z,5.07
2018-07-26T22:40:44.837Z,5.57
2018-07-26T22:43:13.069Z,5.13
2018-07-26T22:45:41.332Z,4.87
2018-07-26T22:48:11.121Z,5.40
2018-07-26T22:50:39.367Z,5.10
2018-07-26T22:53:07.554Z,4.40
2018-07-26T22:55:35.733Z,4.80
2018-07-26T22:58:03.982Z,4.27
2018-07-26T23:00:32.193Z,4.80
2018-07-26T23:03:00.386Z,4.53
2018-07-26T23:05:28.672Z,4.73
2018-07-26T23:07:57.150Z,4.77
2018-07-26T23:10:25.339Z,5.60
2018-07-26T23:12:53.541Z,4.60
2018-07-26T23:15:21.817Z,4.30
2018-07-26T23:17:49.958Z,5.10
2018-07-26T23:20:18.206Z,4.07
2018-07-26T23:22:46.902Z,4.27
2018-07-26T23:25:15.095Z,4.90
2018-07-26T23:27:43.270Z,4.33
2018-07-26T23:30:12.771Z,5.13
2018-07-26T23:32:41.219Z,4.77
2018-07-26T23:35:09.751Z,4.10
2018-07-26T23:37:37.990Z,4.93
2018-07-26T23:40:07.503Z,5.07
2018-07-26T23:42:35.691Z,5.07
2018-07-26T23:45:04.501Z,5.40
2018-07-26T23:47:32.744Z,5.20
2018-07-26T23:50:01.317Z,4.80
2018-07-26T23:52:30.123Z,4.53
2018-07-26T23:54:58.330Z,5.53
2018-07-26T23:57:27.278Z,7.03
2018-07-26T23:59:55.467Z,7.23
